sensor_id;sensor_type;location;lat;lon;timestamp;temperature;humidity
9448;DHT22;4762;48.128;11.376;2023-05-07T00:01:28;11.20;99.90
9448;DHT22;4762;48.128;11.376;2023-05-07T00:03:31;11.20;99.90
9448;DHT22;4762;48.128;11.376;2023-05-07T00:05:33;11.20;99.90
9448;DHT22;4762;48.128;11.376;2023-05-07T00:07:35;11.20;99.90
9448;DHT22;4762;48.128;11.376;2023-05-07T00:09:38;11.20;99.90
9448;DHT22;4762;48.128;11.376;2023-05-07T00:11:40;11.10;99.90
9448;DHT22;4762;48.128;11.376;2023-05-07T00:13:42;11.10;99.90
9448;DHT22;4762;48.128;11.376;2023-05-07T00:15:44;11.10;99.90
9448;DHT22;4762;48.128;11.376;2023-05-07T00:17:47;11.10;99.90
9448;DHT22;4762;48.128;11.376;2023-05-07T00:19:49;11.10;99.90
9448;DHT22;4762;48.128;11.376;2023-05-07T00:21:52;11.10;99.90
9448;DHT22;4762;48.128;11.376;2023-05-07T00:23:55;11.00;99.90
9448;DHT22;4762;48.128;11.376;2023-05-07T00:25:57;11.00;99.90
9448;DHT22;4762;48.128;11.376;2023-05-07T00:27:59;11.00;99.90
9448;DHT22;4762;48.128;11.376;2023-05-07T00:30:01;10.90;99.90
9448;DHT22;4762;48.128;11.376;2023-05-07T00:32:06;10.80;99.90
9448;DHT22;4762;48.128;11.376;2023-05-07T00:34:08;10.80;99.90
9448;DHT22;4762;48.128;11.376;2023-05-07T00:36:10;10.90;99.90
9448;DHT22;4762;48.128;11.376;2023-05-07T00:38:13;10.90;99.90
9448;DHT22;4762;48.128;11.376;2023-05-07T00:40:15;10.90;99.90
9448;DHT22;4762;48.128;11.376;2023-05-07T00:42:17;10.80;99.90
9448;DHT22;4762;48.128;11.376;2023-05-07T00:44:19;10.80;99.90
9448;DHT22;4762;48.128;11.376;2023-05-07T00:46:21;10.80;99.90
9448;DHT22;4762;48.128;11.376;2023-05-07T00:48:24;10.90;99.90
9448;DHT22;4762;48.128;11.376;2023-05-07T00:50:27;10.80;99.90
9448;DHT22;4762;48.128;11.376;2023-05-07T00:52:30;10.80;99.90
9448;DHT22;4762;48.128;11.376;2023-05-07T00:54:33;10.90;99.90
9448;DHT22;4762;48.128;11.376;2023-05-07T00:56:35;10.80;99.90
9448;DHT22;4762;48.128;11.376;2023-05-07T00:58:37;10.90;99.90
9448;DHT22;4762;48.128;11.376;2023-05-07T01:00:40;10.80;99.90
9448;DHT22;4762;48.128;11.376;2023-05-07T01:02:42;10.90;99.90
9448;DHT22;4762;48.128;11.376;2023-05-07T01:04:44;10.90;99.90
9448;DHT22;4762;48.128;11.376;2023-05-07T01:06:46;10.80;99.90
9448;DHT22;4762;48.128;11.376;2023-05-07T01:08:48;10.80;99.90
9448;DHT22;4762;48.128;11.376;2023-05-07T01:10:50;10.80;99.90
9448;DHT22;4762;48.128;11.376;2023-05-07T01:17:35;10.80;99.90
9448;DHT22;4762;48.128;11.376;2023-05-07T01:19:37;10.80;99.90
9448;DHT22;4762;48.128;11.376;2023-05-07T01:21:40;10.80;99.90
9448;DHT22;4762;48.128;11.376;2023-05-07T01:23:42;10.80;99.90
9448;DHT22;4762;48.128;11.376;2023-05-07T01:25:50;10.90;99.90
9448;DHT22;4762;48.128;11.376;2023-05-07T01:27:47;10.90;99.90
9448;DHT22;4762;48.128;11.376;2023-05-07T01:29:50;10.80;99.90
9448;DHT22;4762;48.128;11.376;2023-05-07T01:31:53;10.80;99.90
9448;DHT22;4762;48.128;11.376;2023-05-07T01:33:55;10.90;99.90
9448;DHT22;4762;48.128;11.376;2023-05-07T01:35:57;10.80;99.90
9448;DHT22;4762;48.128;11.376;2023-05-07T01:38:00;10.90;99.90
9448;DHT22;4762;48.128;11.376;2023-05-07T01:40:01;10.90;99.90
9448;DHT22;4762;48.128;11.376;2023-05-07T01:42:04;10.90;99.90
9448;DHT22;4762;48.128;11.376;2023-05-07T01:44:07;10.90;99.90
9448;DHT22;4762;48.128;11.376;2023-05-07T01:46:09;10.80;99.90
9448;DHT22;4762;48.128;11.376;2023-05-07T01:48:12;10.70;99.90
9448;DHT22;4762;48.128;11.376;2023-05-07T01:50:14;10.60;99.90
9448;DHT22;4762;48.128;11.376;2023-05-07T01:52:16;10.60;99.90
9448;DHT22;4762;48.128;11.376;2023-05-07T01:54:18;10.50;99.90
9448;DHT22;4762;48.128;11.376;2023-05-07T01:56:21;10.50;99.90
9448;DHT22;4762;48.128;11.376;2023-05-07T01:58:23;10.40;99.90
9448;DHT22;4762;48.128;11.376;2023-05-07T02:00:25;10.50;99.90
9448;DHT22;4762;48.128;11.376;2023-05-07T02:02:28;10.50;99.90
9448;DHT22;4762;48.128;11.376;2023-05-07T02:04:30;10.40;99.90
9448;DHT22;4762;48.128;11.376;2023-05-07T02:06:32;10.30;99.90
9448;DHT22;4762;48.128;11.376;2023-05-07T02:08:34;10.30;99.90
9448;DHT22;4762;48.128;11.376;2023-05-07T02:10:36;10.30;99.90
9448;DHT22;4762;48.128;11.376;2023-05-07T02:12:39;10.30;99.90
9448;DHT22;4762;48.128;11.376;2023-05-07T02:14:41;10.40;99.90
9448;DHT22;4762;48.128;11.376;2023-05-07T02:16:43;10.40;99.90
9448;DHT22;4762;48.128;11.376;2023-05-07T02:18:45;10.40;99.90
9448;DHT22;4762;48.128;11.376;2023-05-07T02:20:48;10.40;99.90
9448;DHT22;4762;48.128;11.376;2023-05-07T02:22:50;10.40;99.90
9448;DHT22;4762;48.128;11.376;2023-05-07T02:24:53;10.40;99.90
9448;DHT22;4762;48.128;11.376;2023-05-07T02:26:55;10.40;99.90
9448;DHT22;4762;48.128;11.376;2023-05-07T02:28:57;10.40;99.90
9448;DHT22;4762;48.128;11.376;2023-05-07T02:30:59;10.40;99.90
9448;DHT22;4762;48.128;11.376;2023-05-07T02:33:02;10.30;99.90
9448;DHT22;4762;48.128;11.376;2023-05-07T02:35:04;10.20;99.90
9448;DHT22;4762;48.128;11.376;2023-05-07T02:37:07;10.20;99.90
9448;DHT22;4762;48.128;11.376;2023-05-07T02:39:09;10.30;99.90
9448;DHT22;4762;48.128;11.376;2023-05-07T02:41:11;10.20;99.90
9448;DHT22;4762;48.128;11.376;2023-05-07T02:43:13;10.20;99.90
9448;DHT22;4762;48.128;11.376;2023-05-07T02:45:15;10.20;99.90
9448;DHT22;4762;48.128;11.376;2023-05-07T02:47:18;10.30;99.90
9448;DHT22;4762;48.128;11.376;2023-05-07T02:49:20;10.20;99.90
9448;DHT22;4762;48.128;11.376;2023-05-07T02:51:22;10.20;99.90
9448;DHT22;4762;48.128;11.376;2023-05-07T02:53:25;10.20;99.90
9448;DHT22;4762;48.128;11.376;2023-05-07T02:55:27;10.20;99.90
9448;DHT22;4762;48.128;11.376;2023-05-07T02:57:30;10.20;99.90
9448;DHT22;4762;48.128;11.376;2023-05-07T02:59:32;10.20;99.90
9448;DHT22;4762;48.128;11.376;2023-05-07T03:01:34;10.20;99.90
9448;DHT22;4762;48.128;11.376;2023-05-07T03:03:36;10.10;99.90
9448;DHT22;4762;48.128;11.376;2023-05-07T03:05:39;10.10;99.90
9448;DHT22;4762;48.128;11.376;2023-05-07T03:07:41;10.10;99.90
9448;DHT22;4762;48.128;11.376;2023-05-07T03:09:44;10.10;99.90
9448;DHT22;4762;48.128;11.376;2023-05-07T03:11:46;10.00;99.90
9448;DHT22;4762;48.128;11.376;2023-05-07T03:13:48;10.00;99.90
9448;DHT22;4762;48.128;11.376;2023-05-07T03:15:50;10.00;99.90
9448;DHT22;4762;48.128;11.376;2023-05-07T03:17:53;10.00;99.90
9448;DHT22;4762;48.128;11.376;2023-05-07T03:19:55;10.00;99.90
9448;DHT22;4762;48.128;11.376;2023-05-07T03:21:57;10.00;99.90
9448;DHT22;4762;48.128;11.376;2023-05-07T03:23:59;10.00;99.90
9448;DHT22;4762;48.128;11.376;2023-05-07T03:26:01;9.90;99.90
9448;DHT22;4762;48.128;11.376;2023-05-07T03:28:04;9.90;99.90
9448;DHT22;4762;48.128;11.376;2023-05-07T03:30:06;9.80;99.90
9448;DHT22;4762;48.128;11.376;2023-05-07T03:32:09;9.80;99.90
9448;DHT22;4762;48.128;11.376;2023-05-07T03:34:11;9.80;99.90
9448;DHT22;4762;48.128;11.376;2023-05-07T03:36:13;9.80;99.90
9448;DHT22;4762;48.128;11.376;2023-05-07T03:38:15;9.80;99.90
9448;DHT22;4762;48.128;11.376;2023-05-07T03:40:18;9.80;99.90
9448;DHT22;4762;48.128;11.376;2023-05-07T03:42:20;9.80;99.90
9448;DHT22;4762;48.128;11.376;2023-05-07T03:44:22;9.80;99.90
9448;DHT22;4762;48.128;11.376;2023-05-07T03:46:24;9.80;99.90
9448;DHT22;4762;48.128;11.376;2023-05-07T03:48:26;9.70;99.90
9448;DHT22;4762;48.128;11.376;2023-05-07T03:50:29;9.70;99.90
9448;DHT22;4762;48.128;11.376;2023-05-07T03:52:31;9.70;99.90
9448;DHT22;4762;48.128;11.376;2023-05-07T03:54:33;9.70;99.90
9448;DHT22;4762;48.128;11.376;2023-05-07T03:56:36;9.60;99.90
9448;DHT22;4762;48.128;11.376;2023-05-07T03:58:38;9.60;99.90
9448;DHT22;4762;48.128;11.376;2023-05-07T04:00:41;9.60;99.90
9448;DHT22;4762;48.128;11.376;2023-05-07T04:02:43;9.60;99.90
9448;DHT22;4762;48.128;11.376;2023-05-07T04:04:47;9.60;99.90
9448;DHT22;4762;48.128;11.376;2023-05-07T04:06:48;9.60;99.90
9448;DHT22;4762;48.128;11.376;2023-05-07T04:08:50;9.60;99.90
9448;DHT22;4762;48.128;11.376;2023-05-07T04:10:55;9.60;99.90
9448;DHT22;4762;48.128;11.376;2023-05-07T04:12:57;9.60;99.90
9448;DHT22;4762;48.128;11.376;2023-05-07T04:14:59;9.60;99.90
9448;DHT22;4762;48.128;11.376;2023-05-07T04:17:02;9.70;99.90
9448;DHT22;4762;48.128;11.376;2023-05-07T04:19:04;9.70;99.90
9448;DHT22;4762;48.128;11.376;2023-05-07T04:21:13;9.70;99.90
9448;DHT22;4762;48.128;11.376;2023-05-07T04:23:08;9.70;99.90
9448;DHT22;4762;48.128;11.376;2023-05-07T04:25:11;9.70;99.90
9448;DHT22;4762;48.128;11.376;2023-05-07T04:27:13;9.70;99.90
9448;DHT22;4762;48.128;11.376;2023-05-07T04:29:15;9.70;99.90
9448;DHT22;4762;48.128;11.376;2023-05-07T04:31:17;9.80;99.90
9448;DHT22;4762;48.128;11.376;2023-05-07T04:33:20;9.80;99.90
9448;DHT22;4762;48.128;11.376;2023-05-07T04:35:22;9.90;99.90
9448;DHT22;4762;48.128;11.376;2023-05-07T04:37:25;10.00;99.90
9448;DHT22;4762;48.128;11.376;2023-05-07T04:39:27;9.90;99.90
9448;DHT22;4762;48.128;11.376;2023-05-07T04:41:30;10.10;99.90
9448;DHT22;4762;48.128;11.376;2023-05-07T04:43:32;10.10;99.90
9448;DHT22;4762;48.128;11.376;2023-05-07T04:45:35;10.20;99.90
9448;DHT22;4762;48.128;11.376;2023-05-07T04:47:37;10.20;99.90
9448;DHT22;4762;48.128;11.376;2023-05-07T04:49:39;10.20;99.90
9448;DHT22;4762;48.128;11.376;2023-05-07T04:51:41;10.20;99.90
9448;DHT22;4762;48.128;11.376;2023-05-07T04:53:43;10.20;99.90
9448;DHT22;4762;48.128;11.376;2023-05-07T04:55:45;10.30;99.90
9448;DHT22;4762;48.128;11.376;2023-05-07T04:57:48;10.30;99.90
9448;DHT22;4762;48.128;11.376;2023-05-07T04:59:50;10.40;99.90
9448;DHT22;4762;48.128;11.376;2023-05-07T05:01:52;10.30;99.90
9448;DHT22;4762;48.128;11.376;2023-05-07T05:03:54;10.40;99.90
9448;DHT22;4762;48.128;11.376;2023-05-07T05:05:57;10.50;99.90
9448;DHT22;4762;48.128;11.376;2023-05-07T05:07:59;10.70;99.90
9448;DHT22;4762;48.128;11.376;2023-05-07T05:10:01;11.80;99.90
9448;DHT22;4762;48.128;11.376;2023-05-07T05:12:03;13.20;99.90
9448;DHT22;4762;48.128;11.376;2023-05-07T05:14:06;13.40;99.90
9448;DHT22;4762;48.128;11.376;2023-05-07T05:16:08;12.90;99.90
9448;DHT22;4762;48.128;11.376;2023-05-07T05:18:10;12.70;99.90
9448;DHT22;4762;48.128;11.376;2023-05-07T05:20:13;14.90;99.90
9448;DHT22;4762;48.128;11.376;2023-05-07T05:22:16;16.90;99.90
9448;DHT22;4762;48.128;11.376;2023-05-07T05:24:18;17.40;99.90
9448;DHT22;4762;48.128;11.376;2023-05-07T05:26:20;17.00;99.90
9448;DHT22;4762;48.128;11.376;2023-05-07T05:28:22;16.70;99.90
9448;DHT22;4762;48.128;11.376;2023-05-07T05:30:24;18.10;99.90
9448;DHT22;4762;48.128;11.376;2023-05-07T05:32:27;19.00;99.90
9448;DHT22;4762;48.128;11.376;2023-05-07T05:34:29;17.80;99.80
9448;DHT22;4762;48.128;11.376;2023-05-07T05:36:31;17.50;99.90
9448;DHT22;4762;48.128;11.376;2023-05-07T05:38:33;17.00;99.90
9448;DHT22;4762;48.128;11.376;2023-05-07T05:40:36;15.90;99.90
9448;DHT22;4762;48.128;11.376;2023-05-07T05:42:38;15.00;99.90
9448;DHT22;4762;48.128;11.376;2023-05-07T05:44:41;14.80;99.90
9448;DHT22;4762;48.128;11.376;2023-05-07T05:46:43;14.20;99.90
9448;DHT22;4762;48.128;11.376;2023-05-07T05:48:45;14.40;99.90
9448;DHT22;4762;48.128;11.376;2023-05-07T05:50:47;14.70;99.90
9448;DHT22;4762;48.128;11.376;2023-05-07T05:52:49;14.60;99.90
9448;DHT22;4762;48.128;11.376;2023-05-07T05:54:52;14.40;99.90
9448;DHT22;4762;48.128;11.376;2023-05-07T05:57:05;14.60;99.90
9448;DHT22;4762;48.128;11.376;2023-05-07T05:59:19;14.30;99.90
9448;DHT22;4762;48.128;11.376;2023-05-07T06:01:22;14.40;99.90
9448;DHT22;4762;48.128;11.376;2023-05-07T06:03:24;15.40;99.90
9448;DHT22;4762;48.128;11.376;2023-05-07T06:05:26;16.90;99.90
9448;DHT22;4762;48.128;11.376;2023-05-07T06:07:29;17.50;99.90
9448;DHT22;4762;48.128;11.376;2023-05-07T06:09:31;17.20;99.90
9448;DHT22;4762;48.128;11.376;2023-05-07T06:11:34;18.50;99.90
9448;DHT22;4762;48.128;11.376;2023-05-07T06:13:36;18.00;99.90
9448;DHT22;4762;48.128;11.376;2023-05-07T06:15:39;17.80;99.90
9448;DHT22;4762;48.128;11.376;2023-05-07T06:17:41;17.40;99.90
9448;DHT22;4762;48.128;11.376;2023-05-07T06:19:43;17.20;99.90
9448;DHT22;4762;48.128;11.376;2023-05-07T06:21:45;17.60;99.90
9448;DHT22;4762;48.128;11.376;2023-05-07T06:23:48;17.60;99.90
9448;DHT22;4762;48.128;11.376;2023-05-07T06:25:50;17.30;99.90
9448;DHT22;4762;48.128;11.376;2023-05-07T06:27:52;17.50;99.90
9448;DHT22;4762;48.128;11.376;2023-05-07T06:29:54;17.60;99.90
9448;DHT22;4762;48.128;11.376;2023-05-07T06:31:57;18.40;99.90
9448;DHT22;4762;48.128;11.376;2023-05-07T06:33:59;18.60;99.90
9448;DHT22;4762;48.128;11.376;2023-05-07T06:36:01;19.30;99.90
9448;DHT22;4762;48.128;11.376;2023-05-07T06:38:03;19.90;99.90
9448;DHT22;4762;48.128;11.376;2023-05-07T06:40:06;20.10;99.90
9448;DHT22;4762;48.128;11.376;2023-05-07T06:42:08;20.60;97.40
9448;DHT22;4762;48.128;11.376;2023-05-07T06:44:10;21.00;96.30
9448;DHT22;4762;48.128;11.376;2023-05-07T06:46:13;21.40;89.30
9448;DHT22;4762;48.128;11.376;2023-05-07T06:48:15;21.00;80.10
9448;DHT22;4762;48.128;11.376;2023-05-07T06:50:17;21.20;86.70
9448;DHT22;4762;48.128;11.376;2023-05-07T06:52:19;21.30;82.80
9448;DHT22;4762;48.128;11.376;2023-05-07T06:54:22;20.90;78.70
9448;DHT22;4762;48.128;11.376;2023-05-07T06:56:24;21.60;83.50
9448;DHT22;4762;48.128;11.376;2023-05-07T06:58:26;21.70;76.60
9448;DHT22;4762;48.128;11.376;2023-05-07T07:00:31;21.10;80.90
9448;DHT22;4762;48.128;11.376;2023-05-07T07:02:33;21.30;77.00
9448;DHT22;4762;48.128;11.376;2023-05-07T07:04:35;21.40;76.90
9448;DHT22;4762;48.128;11.376;2023-05-07T07:06:38;22.40;76.80
9448;DHT22;4762;48.128;11.376;2023-05-07T07:08:40;22.90;75.60
9448;DHT22;4762;48.128;11.376;2023-05-07T07:10:43;23.00;70.30
9448;DHT22;4762;48.128;11.376;2023-05-07T07:12:46;22.90;71.80
9448;DHT22;4762;48.128;11.376;2023-05-07T07:14:49;23.20;70.90
9448;DHT22;4762;48.128;11.376;2023-05-07T07:16:52;23.20;67.70
9448;DHT22;4762;48.128;11.376;2023-05-07T07:18:54;23.60;68.00
9448;DHT22;4762;48.128;11.376;2023-05-07T07:20:56;23.40;65.80
9448;DHT22;4762;48.128;11.376;2023-05-07T07:22:58;23.40;64.70
9448;DHT22;4762;48.128;11.376;2023-05-07T07:25:00;23.20;66.40
9448;DHT22;4762;48.128;11.376;2023-05-07T07:27:03;23.90;68.30
9448;DHT22;4762;48.128;11.376;2023-05-07T07:29:05;24.10;62.50
9448;DHT22;4762;48.128;11.376;2023-05-07T07:31:07;24.10;61.20
9448;DHT22;4762;48.128;11.376;2023-05-07T07:33:09;24.40;61.80
9448;DHT22;4762;48.128;11.376;2023-05-07T07:35:12;24.20;61.30
9448;DHT22;4762;48.128;11.376;2023-05-07T07:37:14;24.20;62.80
9448;DHT22;4762;48.128;11.376;2023-05-07T07:39:16;23.60;61.80
9448;DHT22;4762;48.128;11.376;2023-05-07T07:41:18;24.30;62.00
9448;DHT22;4762;48.128;11.376;2023-05-07T07:43:21;24.70;59.60
9448;DHT22;4762;48.128;11.376;2023-05-07T07:45:23;24.80;58.50
9448;DHT22;4762;48.128;11.376;2023-05-07T07:47:26;25.00;59.80
9448;DHT22;4762;48.128;11.376;2023-05-07T07:49:28;25.30;55.50
9448;DHT22;4762;48.128;11.376;2023-05-07T07:51:31;24.80;57.60
9448;DHT22;4762;48.128;11.376;2023-05-07T07:53:33;24.50;55.90
9448;DHT22;4762;48.128;11.376;2023-05-07T07:55:39;23.90;56.40
9448;DHT22;4762;48.128;11.376;2023-05-07T07:57:40;24.20;59.80
9448;DHT22;4762;48.128;11.376;2023-05-07T07:59:43;24.90;56.00
9448;DHT22;4762;48.128;11.376;2023-05-07T08:01:45;25.60;56.90
9448;DHT22;4762;48.128;11.376;2023-05-07T08:03:47;25.80;54.30
9448;DHT22;4762;48.128;11.376;2023-05-07T08:05:49;25.40;54.80
9448;DHT22;4762;48.128;11.376;2023-05-07T08:07:51;25.40;53.90
9448;DHT22;4762;48.128;11.376;2023-05-07T08:09:54;25.90;55.40
9448;DHT22;4762;48.128;11.376;2023-05-07T08:11:56;25.90;52.20
9448;DHT22;4762;48.128;11.376;2023-05-07T08:13:58;25.30;54.20
9448;DHT22;4762;48.128;11.376;2023-05-07T08:16:00;24.90;52.80
9448;DHT22;4762;48.128;11.376;2023-05-07T08:18:03;24.90;52.20
9448;DHT22;4762;48.128;11.376;2023-05-07T08:20:06;25.00;52.40
9448;DHT22;4762;48.128;11.376;2023-05-07T08:22:09;25.30;54.70
9448;DHT22;4762;48.128;11.376;2023-05-07T08:24:11;25.70;53.60
9448;DHT22;4762;48.128;11.376;2023-05-07T08:26:13;25.70;52.80
9448;DHT22;4762;48.128;11.376;2023-05-07T08:28:15;25.40;51.20
9448;DHT22;4762;48.128;11.376;2023-05-07T08:30:17;25.70;50.40
9448;DHT22;4762;48.128;11.376;2023-05-07T08:32:20;25.70;51.10
9448;DHT22;4762;48.128;11.376;2023-05-07T08:34:22;25.60;50.90
9448;DHT22;4762;48.128;11.376;2023-05-07T08:36:24;25.90;51.30
9448;DHT22;4762;48.128;11.376;2023-05-07T08:38:26;26.10;49.60
9448;DHT22;4762;48.128;11.376;2023-05-07T08:40:29;26.40;48.80
9448;DHT22;4762;48.128;11.376;2023-05-07T08:42:31;26.30;49.20
9448;DHT22;4762;48.128;11.376;2023-05-07T08:44:33;25.50;49.90
9448;DHT22;4762;48.128;11.376;2023-05-07T08:46:35;25.80;48.70
9448;DHT22;4762;48.128;11.376;2023-05-07T08:48:37;26.20;47.70
9448;DHT22;4762;48.128;11.376;2023-05-07T08:50:40;25.30;49.10
9448;DHT22;4762;48.128;11.376;2023-05-07T08:52:42;26.20;47.90
9448;DHT22;4762;48.128;11.376;2023-05-07T08:54:44;26.20;48.00
9448;DHT22;4762;48.128;11.376;2023-05-07T08:56:47;26.20;46.40
9448;DHT22;4762;48.128;11.376;2023-05-07T08:58:49;26.50;46.20
9448;DHT22;4762;48.128;11.376;2023-05-07T09:00:51;26.60;46.70
9448;DHT22;4762;48.128;11.376;2023-05-07T09:02:53;26.30;49.10
9448;DHT22;4762;48.128;11.376;2023-05-07T09:04:56;26.90;48.60
9448;DHT22;4762;48.128;11.376;2023-05-07T09:06:58;26.20;47.70
9448;DHT22;4762;48.128;11.376;2023-05-07T09:09:00;25.40;50.30
9448;DHT22;4762;48.128;11.376;2023-05-07T09:11:02;25.80;48.90
9448;DHT22;4762;48.128;11.376;2023-05-07T09:13:11;25.70;48.80
9448;DHT22;4762;48.128;11.376;2023-05-07T09:15:13;25.70;47.70
9448;DHT22;4762;48.128;11.376;2023-05-07T09:17:16;24.90;50.10
9448;DHT22;4762;48.128;11.376;2023-05-07T09:19:22;25.70;49.50
9448;DHT22;4762;48.128;11.376;2023-05-07T09:21:21;26.50;48.70
9448;DHT22;4762;48.128;11.376;2023-05-07T09:23:23;27.00;46.40
9448;DHT22;4762;48.128;11.376;2023-05-07T09:25:29;27.20;46.90
9448;DHT22;4762;48.128;11.376;2023-05-07T09:27:37;26.70;46.70
9448;DHT22;4762;48.128;11.376;2023-05-07T09:29:39;26.50;48.10
9448;DHT22;4762;48.128;11.376;2023-05-07T09:31:42;27.40;46.60
9448;DHT22;4762;48.128;11.376;2023-05-07T09:33:44;26.80;45.50
9448;DHT22;4762;48.128;11.376;2023-05-07T09:35:47;26.50;47.60
9448;DHT22;4762;48.128;11.376;2023-05-07T09:37:48;26.60;45.70
9448;DHT22;4762;48.128;11.376;2023-05-07T09:39:51;26.80;45.90
9448;DHT22;4762;48.128;11.376;2023-05-07T09:41:53;26.60;43.40
9448;DHT22;4762;48.128;11.376;2023-05-07T09:43:55;26.40;45.00
9448;DHT22;4762;48.128;11.376;2023-05-07T09:45:58;26.80;44.50
9448;DHT22;4762;48.128;11.376;2023-05-07T09:48:00;26.60;43.20
9448;DHT22;4762;48.128;11.376;2023-05-07T09:50:03;27.40;42.80
9448;DHT22;4762;48.128;11.376;2023-05-07T09:52:06;27.20;43.50
9448;DHT22;4762;48.128;11.376;2023-05-07T09:54:09;27.10;43.50
9448;DHT22;4762;48.128;11.376;2023-05-07T09:56:12;27.60;44.20
9448;DHT22;4762;48.128;11.376;2023-05-07T09:58:13;27.60;41.00
9448;DHT22;4762;48.128;11.376;2023-05-07T10:00:17;27.50;43.40
9448;DHT22;4762;48.128;11.376;2023-05-07T10:02:18;26.50;42.50
9448;DHT22;4762;48.128;11.376;2023-05-07T10:04:21;26.70;42.50
9448;DHT22;4762;48.128;11.376;2023-05-07T10:06:24;26.30;44.00
9448;DHT22;4762;48.128;11.376;2023-05-07T10:08:26;26.30;44.00
9448;DHT22;4762;48.128;11.376;2023-05-07T10:10:29;26.40;44.00
9448;DHT22;4762;48.128;11.376;2023-05-07T10:12:31;26.10;44.40
9448;DHT22;4762;48.128;11.376;2023-05-07T10:14:33;26.10;45.20
9448;DHT22;4762;48.128;11.376;2023-05-07T10:16:36;26.60;44.90
9448;DHT22;4762;48.128;11.376;2023-05-07T10:18:39;26.10;43.80
9448;DHT22;4762;48.128;11.376;2023-05-07T10:20:41;26.00;45.90
9448;DHT22;4762;48.128;11.376;2023-05-07T10:22:44;26.10;44.90
9448;DHT22;4762;48.128;11.376;2023-05-07T10:24:46;26.70;43.70
9448;DHT22;4762;48.128;11.376;2023-05-07T10:26:50;27.00;42.90
9448;DHT22;4762;48.128;11.376;2023-05-07T10:28:53;26.70;43.10
9448;DHT22;4762;48.128;11.376;2023-05-07T10:31:16;25.90;44.00
9448;DHT22;4762;48.128;11.376;2023-05-07T10:33:16;26.10;44.10
9448;DHT22;4762;48.128;11.376;2023-05-07T10:35:21;26.50;45.30
9448;DHT22;4762;48.128;11.376;2023-05-07T10:37:22;26.60;42.30
9448;DHT22;4762;48.128;11.376;2023-05-07T10:39:28;24.40;43.50
9448;DHT22;4762;48.128;11.376;2023-05-07T10:41:32;24.60;46.10
9448;DHT22;4762;48.128;11.376;2023-05-07T10:43:39;25.40;45.80
9448;DHT22;4762;48.128;11.376;2023-05-07T10:55:47;25.90;42.50
9448;DHT22;4762;48.128;11.376;2023-05-07T10:57:49;26.00;44.20
9448;DHT22;4762;48.128;11.376;2023-05-07T10:59:52;26.00;43.10
9448;DHT22;4762;48.128;11.376;2023-05-07T11:01:56;26.40;43.60
9448;DHT22;4762;48.128;11.376;2023-05-07T11:06:14;25.70;43.30
9448;DHT22;4762;48.128;11.376;2023-05-07T11:08:15;26.90;43.60
9448;DHT22;4762;48.128;11.376;2023-05-07T11:10:18;26.30;43.20
9448;DHT22;4762;48.128;11.376;2023-05-07T11:14:46;27.90;40.50
9448;DHT22;4762;48.128;11.376;2023-05-07T11:16:49;28.80;40.10
9448;DHT22;4762;48.128;11.376;2023-05-07T11:18:52;28.40;38.20
9448;DHT22;4762;48.128;11.376;2023-05-07T11:20:54;27.60;39.20
9448;DHT22;4762;48.128;11.376;2023-05-07T11:22:55;28.10;39.70
9448;DHT22;4762;48.128;11.376;2023-05-07T11:25:01;28.40;38.50
9448;DHT22;4762;48.128;11.376;2023-05-07T11:27:03;27.80;39.40
9448;DHT22;4762;48.128;11.376;2023-05-07T11:29:10;26.80;40.40
9448;DHT22;4762;48.128;11.376;2023-05-07T11:31:08;26.40;40.20
9448;DHT22;4762;48.128;11.376;2023-05-07T11:33:11;26.90;40.60
9448;DHT22;4762;48.128;11.376;2023-05-07T11:35:14;27.80;41.60
9448;DHT22;4762;48.128;11.376;2023-05-07T11:37:17;27.90;40.30
9448;DHT22;4762;48.128;11.376;2023-05-07T11:39:35;27.60;41.10
9448;DHT22;4762;48.128;11.376;2023-05-07T11:41:38;28.10;40.10
9448;DHT22;4762;48.128;11.376;2023-05-07T11:45:48;27.60;42.00
9448;DHT22;4762;48.128;11.376;2023-05-07T11:47:52;27.80;39.40
9448;DHT22;4762;48.128;11.376;2023-05-07T11:49:54;29.20;39.20
9448;DHT22;4762;48.128;11.376;2023-05-07T11:51:56;27.60;40.00
9448;DHT22;4762;48.128;11.376;2023-05-07T11:53:58;27.30;39.90
9448;DHT22;4762;48.128;11.376;2023-05-07T11:56:05;27.40;40.60
9448;DHT22;4762;48.128;11.376;2023-05-07T11:58:03;27.00;41.00
9448;DHT22;4762;48.128;11.376;2023-05-07T12:00:07;27.10;41.80
9448;DHT22;4762;48.128;11.376;2023-05-07T12:02:10;27.60;40.20
9448;DHT22;4762;48.128;11.376;2023-05-07T12:04:12;27.10;41.10
9448;DHT22;4762;48.128;11.376;2023-05-07T12:06:15;26.80;42.20
9448;DHT22;4762;48.128;11.376;2023-05-07T12:08:18;27.20;42.30
9448;DHT22;4762;48.128;11.376;2023-05-07T12:10:20;27.20;40.80
9448;DHT22;4762;48.128;11.376;2023-05-07T12:12:22;28.00;42.30
9448;DHT22;4762;48.128;11.376;2023-05-07T12:14:27;28.30;41.50
9448;DHT22;4762;48.128;11.376;2023-05-07T12:16:27;28.20;40.80
9448;DHT22;4762;48.128;11.376;2023-05-07T12:18:30;28.00;40.90
9448;DHT22;4762;48.128;11.376;2023-05-07T12:20:33;28.20;40.40
9448;DHT22;4762;48.128;11.376;2023-05-07T12:22:35;27.30;41.00
9448;DHT22;4762;48.128;11.376;2023-05-07T12:24:55;27.20;42.50
9448;DHT22;4762;48.128;11.376;2023-05-07T12:26:51;27.00;42.50
9448;DHT22;4762;48.128;11.376;2023-05-07T12:28:54;26.50;43.20
9448;DHT22;4762;48.128;11.376;2023-05-07T12:30:56;26.20;44.60
9448;DHT22;4762;48.128;11.376;2023-05-07T12:32:59;27.20;42.50
9448;DHT22;4762;48.128;11.376;2023-05-07T12:35:03;27.60;42.40
9448;DHT22;4762;48.128;11.376;2023-05-07T12:37:05;28.30;40.90
9448;DHT22;4762;48.128;11.376;2023-05-07T12:39:08;27.40;40.80
9448;DHT22;4762;48.128;11.376;2023-05-07T12:41:11;26.40;44.20
9448;DHT22;4762;48.128;11.376;2023-05-07T12:43:20;26.10;41.90
9448;DHT22;4762;48.128;11.376;2023-05-07T12:45:25;26.60;42.20
9448;DHT22;4762;48.128;11.376;2023-05-07T12:47:28;26.90;42.90
9448;DHT22;4762;48.128;11.376;2023-05-07T12:49:30;26.70;42.60
9448;DHT22;4762;48.128;11.376;2023-05-07T12:51:32;26.60;41.80
9448;DHT22;4762;48.128;11.376;2023-05-07T12:53:39;27.30;40.80
9448;DHT22;4762;48.128;11.376;2023-05-07T12:55:41;26.90;41.70
9448;DHT22;4762;48.128;11.376;2023-05-07T12:57:45;27.30;40.50
9448;DHT22;4762;48.128;11.376;2023-05-07T12:59:45;26.90;41.90
9448;DHT22;4762;48.128;11.376;2023-05-07T13:01:48;26.60;42.40
9448;DHT22;4762;48.128;11.376;2023-05-07T13:03:50;26.90;40.50
9448;DHT22;4762;48.128;11.376;2023-05-07T13:05:52;27.50;41.00
9448;DHT22;4762;48.128;11.376;2023-05-07T13:07:56;26.80;40.20
9448;DHT22;4762;48.128;11.376;2023-05-07T13:09:58;26.40;42.60
9448;DHT22;4762;48.128;11.376;2023-05-07T13:12:00;26.50;40.50
9448;DHT22;4762;48.128;11.376;2023-05-07T13:14:03;26.80;41.30
9448;DHT22;4762;48.128;11.376;2023-05-07T13:16:06;27.20;41.30
9448;DHT22;4762;48.128;11.376;2023-05-07T13:18:08;27.60;41.00
9448;DHT22;4762;48.128;11.376;2023-05-07T13:20:11;28.00;38.40
9448;DHT22;4762;48.128;11.376;2023-05-07T13:22:13;27.80;39.60
9448;DHT22;4762;48.128;11.376;2023-05-07T13:24:15;27.60;39.20
9448;DHT22;4762;48.128;11.376;2023-05-07T13:26:18;27.80;39.10
9448;DHT22;4762;48.128;11.376;2023-05-07T13:28:20;27.60;39.30
9448;DHT22;4762;48.128;11.376;2023-05-07T13:30:23;27.90;38.90